sensor_id;sensor_type;location;lat;lon;timestamp;P1;durP1;ratioP1;P2;durP2;ratioP2
21513;SDS011;10918;48.102;11.636;2022-12-08T00:02:17;18.27;;;12.15;;
21513;SDS011;10918;48.102;11.636;2022-12-08T00:04:43;16.55;;;11.50;;
21513;SDS011;10918;48.102;11.636;2022-12-08T00:07:28;14.75;;;9.52;;
21513;SDS011;10918;48.102;11.636;2022-12-08T00:10:13;13.38;;;9.25;;
21513;SDS011;10918;48.102;11.636;2022-12-08T00:12:39;16.10;;;10.15;;
21513;SDS011;10918;48.102;11.636;2022-12-08T00:15:05;13.23;;;9.68;;
21513;SDS011;10918;48.102;11.636;2022-12-08T00:17:31;14.90;;;10.05;;
21513;SDS011;10918;48.102;11.636;2022-12-08T00:19:57;13.23;;;9.50;;
21513;SDS011;10918;48.102;11.636;2022-12-08T00:22:23;12.85;;;9.13;;
21513;SDS011;10918;48.102;11.636;2022-12-08T00:24:49;13.43;;;8.55;;
21513;SDS011;10918;48.102;11.636;2022-12-08T00:27:15;14.90;;;9.40;;
21513;SDS011;10918;48.102;11.636;2022-12-08T00:29:42;13.25;;;8.77;;
21513;SDS011;10918;48.102;11.636;2022-12-08T00:32:09;13.45;;;9.38;;
21513;SDS011;10918;48.102;11.636;2022-12-08T00:34:35;14.60;;;9.30;;
21513;SDS011;10918;48.102;11.636;2022-12-08T00:37:01;14.02;;;9.10;;
21513;SDS011;10918;48.102;11.636;2022-12-08T00:39:27;14.68;;;9.45;;
21513;SDS011;10918;48.102;11.636;2022-12-08T00:41:53;16.13;;;9.27;;
21513;SDS011;10918;48.102;11.636;2022-12-08T00:44:37;13.40;;;9.38;;
21513;SDS011;10918;48.102;11.636;2022-12-08T00:47:03;14.50;;;9.82;;
21513;SDS011;10918;48.102;11.636;2022-12-08T00:49:29;14.80;;;9.48;;
21513;SDS011;10918;48.102;11.636;2022-12-08T00:51:55;12.32;;;9.27;;
21513;SDS011;10918;48.102;11.636;2022-12-08T00:54:22;15.25;;;9.77;;
21513;SDS011;10918;48.102;11.636;2022-12-08T00:56:48;14.48;;;9.60;;
21513;SDS011;10918;48.102;11.636;2022-12-08T00:59:14;14.80;;;10.35;;
21513;SDS011;10918;48.102;11.636;2022-12-08T01:01:40;15.70;;;9.82;;
21513;SDS011;10918;48.102;11.636;2022-12-08T01:04:10;13.68;;;9.02;;
21513;SDS011;10918;48.102;11.636;2022-12-08T01:06:36;12.80;;;9.48;;
21513;SDS011;10918;48.102;11.636;2022-12-08T01:09:03;13.88;;;9.20;;
21513;SDS011;10918;48.102;11.636;2022-12-08T01:11:30;12.65;;;9.15;;
21513;SDS011;10918;48.102;11.636;2022-12-08T01:13:56;13.98;;;9.43;;
21513;SDS011;10918;48.102;11.636;2022-12-08T01:16:26;12.88;;;9.23;;
21513;SDS011;10918;48.102;11.636;2022-12-08T01:18:52;15.23;;;9.43;;
21513;SDS011;10918;48.102;11.636;2022-12-08T01:21:18;15.35;;;9.52;;
21513;SDS011;10918;48.102;11.636;2022-12-08T01:23:44;12.95;;;8.75;;
21513;SDS011;10918;48.102;11.636;2022-12-08T01:26:11;14.48;;;9.50;;
21513;SDS011;10918;48.102;11.636;2022-12-08T01:28:38;14.25;;;8.73;;
21513;SDS011;10918;48.102;11.636;2022-12-08T01:31:09;15.82;;;9.90;;
21513;SDS011;10918;48.102;11.636;2022-12-08T01:33:36;13.40;;;8.63;;
21513;SDS011;10918;48.102;11.636;2022-12-08T01:36:02;13.73;;;8.82;;
21513;SDS011;10918;48.102;11.636;2022-12-08T01:38:29;12.82;;;9.30;;
21513;SDS011;10918;48.102;11.636;2022-12-08T01:40:55;12.30;;;9.05;;
21513;SDS011;10918;48.102;11.636;2022-12-08T01:43:21;16.65;;;9.55;;
21513;SDS011;10918;48.102;11.636;2022-12-08T01:45:47;15.07;;;10.05;;
21513;SDS011;10918;48.102;11.636;2022-12-08T01:48:15;16.45;;;9.82;;
21513;SDS011;10918;48.102;11.636;2022-12-08T01:50:43;13.73;;;9.38;;
21513;SDS011;10918;48.102;11.636;2022-12-08T01:53:10;13.27;;;9.45;;
21513;SDS011;10918;48.102;11.636;2022-12-08T01:55:38;13.45;;;9.43;;
21513;SDS011;10918;48.102;11.636;2022-12-08T01:58:17;14.18;;;9.55;;
21513;SDS011;10918;48.102;11.636;2022-12-08T02:00:45;13.55;;;9.20;;
21513;SDS011;10918;48.102;11.636;2022-12-08T02:03:13;13.35;;;8.98;;
21513;SDS011;10918;48.102;11.636;2022-12-08T02:05:40;13.13;;;9.18;;
21513;SDS011;10918;48.102;11.636;2022-12-08T02:08:07;15.38;;;9.25;;
21513;SDS011;10918;48.102;11.636;2022-12-08T02:10:35;15.00;;;9.25;;
21513;SDS011;10918;48.102;11.636;2022-12-08T02:13:02;16.85;;;10.02;;
21513;SDS011;10918;48.102;11.636;2022-12-08T02:15:40;14.35;;;9.98;;
21513;SDS011;10918;48.102;11.636;2022-12-08T02:20:44;13.30;;;9.65;;
21513;SDS011;10918;48.102;11.636;2022-12-08T02:23:20;14.48;;;9.27;;
21513;SDS011;10918;48.102;11.636;2022-12-08T02:28:30;13.65;;;8.98;;
21513;SDS011;10918;48.102;11.636;2022-12-08T02:33:53;14.05;;;9.25;;
21513;SDS011;10918;48.102;11.636;2022-12-08T02:36:47;13.27;;;9.13;;
21513;SDS011;10918;48.102;11.636;2022-12-08T02:39:19;13.85;;;9.63;;
21513;SDS011;10918;48.102;11.636;2022-12-08T02:41:50;13.27;;;9.02;;
21513;SDS011;10918;48.102;11.636;2022-12-08T02:46:48;14.13;;;9.32;;
21513;SDS011;10918;48.102;11.636;2022-12-08T02:49:15;12.55;;;8.65;;
21513;SDS011;10918;48.102;11.636;2022-12-08T02:51:41;13.52;;;9.02;;
21513;SDS011;10918;48.102;11.636;2022-12-08T02:54:07;14.18;;;9.50;;
21513;SDS011;10918;48.102;11.636;2022-12-08T02:59:07;12.77;;;8.88;;
21513;SDS011;10918;48.102;11.636;2022-12-08T03:01:42;15.70;;;9.38;;
21513;SDS011;10918;48.102;11.636;2022-12-08T03:14:10;13.88;;;9.75;;
21513;SDS011;10918;48.102;11.636;2022-12-08T03:16:38;14.15;;;9.80;;
21513;SDS011;10918;48.102;11.636;2022-12-08T03:19:11;12.65;;;9.05;;
21513;SDS011;10918;48.102;11.636;2022-12-08T03:21:38;13.48;;;8.82;;
21513;SDS011;10918;48.102;11.636;2022-12-08T03:24:05;13.05;;;9.02;;
21513;SDS011;10918;48.102;11.636;2022-12-08T03:26:40;14.43;;;8.68;;
21513;SDS011;10918;48.102;11.636;2022-12-08T03:29:08;11.43;;;8.45;;
21513;SDS011;10918;48.102;11.636;2022-12-08T03:31:36;12.88;;;8.25;;
21513;SDS011;10918;48.102;11.636;2022-12-08T03:34:03;13.02;;;8.68;;
21513;SDS011;10918;48.102;11.636;2022-12-08T03:36:30;13.02;;;8.88;;
21513;SDS011;10918;48.102;11.636;2022-12-08T03:38:56;12.38;;;8.63;;
21513;SDS011;10918;48.102;11.636;2022-12-08T03:41:22;12.70;;;8.75;;
21513;SDS011;10918;48.102;11.636;2022-12-08T03:43:50;15.07;;;9.20;;
21513;SDS011;10918;48.102;11.636;2022-12-08T03:46:17;14.45;;;9.38;;
21513;SDS011;10918;48.102;11.636;2022-12-08T03:48:44;13.07;;;8.88;;
21513;SDS011;10918;48.102;11.636;2022-12-08T03:51:10;12.35;;;9.07;;
21513;SDS011;10918;48.102;11.636;2022-12-08T03:53:36;10.77;;;8.27;;
21513;SDS011;10918;48.102;11.636;2022-12-08T03:56:10;11.65;;;8.13;;
21513;SDS011;10918;48.102;11.636;2022-12-08T03:58:39;12.85;;;8.68;;
21513;SDS011;10918;48.102;11.636;2022-12-08T04:01:05;12.90;;;8.43;;
21513;SDS011;10918;48.102;11.636;2022-12-08T04:03:31;14.05;;;9.40;;
21513;SDS011;10918;48.102;11.636;2022-12-08T04:05:57;14.13;;;9.18;;
21513;SDS011;10918;48.102;11.636;2022-12-08T04:08:23;14.05;;;9.00;;
21513;SDS011;10918;48.102;11.636;2022-12-08T04:10:49;12.45;;;9.30;;
21513;SDS011;10918;48.102;11.636;2022-12-08T04:13:15;12.18;;;8.32;;
21513;SDS011;10918;48.102;11.636;2022-12-08T04:15:45;12.25;;;8.60;;
21513;SDS011;10918;48.102;11.636;2022-12-08T04:18:11;13.45;;;8.65;;
21513;SDS011;10918;48.102;11.636;2022-12-08T04:20:37;11.82;;;8.35;;
21513;SDS011;10918;48.102;11.636;2022-12-08T04:23:04;14.95;;;9.25;;
21513;SDS011;10918;48.102;11.636;2022-12-08T04:25:30;13.85;;;9.52;;
21513;SDS011;10918;48.102;11.636;2022-12-08T04:27:56;12.88;;;8.68;;
21513;SDS011;10918;48.102;11.636;2022-12-08T04:30:22;13.38;;;8.57;;
21513;SDS011;10918;48.102;11.636;2022-12-08T04:32:48;13.55;;;8.57;;
21513;SDS011;10918;48.102;11.636;2022-12-08T04:35:14;13.88;;;9.02;;
21513;SDS011;10918;48.102;11.636;2022-12-08T04:37:40;12.20;;;8.23;;
21513;SDS011;10918;48.102;11.636;2022-12-08T04:40:07;12.52;;;9.07;;
21513;SDS011;10918;48.102;11.636;2022-12-08T04:42:33;13.07;;;8.65;;
21513;SDS011;10918;48.102;11.636;2022-12-08T04:44:59;14.13;;;8.63;;
21513;SDS011;10918;48.102;11.636;2022-12-08T04:47:25;13.60;;;8.82;;
21513;SDS011;10918;48.102;11.636;2022-12-08T04:49:51;14.27;;;8.77;;
21513;SDS011;10918;48.102;11.636;2022-12-08T04:52:17;13.18;;;9.18;;
21513;SDS011;10918;48.102;11.636;2022-12-08T04:54:43;12.70;;;8.20;;
21513;SDS011;10918;48.102;11.636;2022-12-08T04:57:09;15.63;;;9.40;;
21513;SDS011;10918;48.102;11.636;2022-12-08T04:59:35;14.68;;;9.77;;
21513;SDS011;10918;48.102;11.636;2022-12-08T05:02:01;12.15;;;9.55;;
21513;SDS011;10918;48.102;11.636;2022-12-08T05:04:27;14.32;;;9.48;;
21513;SDS011;10918;48.102;11.636;2022-12-08T05:06:53;14.88;;;10.20;;
21513;SDS011;10918;48.102;11.636;2022-12-08T05:09:19;18.30;;;12.75;;
21513;SDS011;10918;48.102;11.636;2022-12-08T05:11:45;18.30;;;13.23;;
21513;SDS011;10918;48.102;11.636;2022-12-08T05:14:11;19.63;;;13.00;;
21513;SDS011;10918;48.102;11.636;2022-12-08T05:16:38;20.58;;;12.65;;
21513;SDS011;10918;48.102;11.636;2022-12-08T05:19:04;16.40;;;11.82;;
21513;SDS011;10918;48.102;11.636;2022-12-08T05:21:30;17.45;;;10.85;;
21513;SDS011;10918;48.102;11.636;2022-12-08T05:23:56;16.63;;;10.98;;
21513;SDS011;10918;48.102;11.636;2022-12-08T05:26:22;20.25;;;12.57;;
21513;SDS011;10918;48.102;11.636;2022-12-08T05:28:48;18.40;;;12.20;;
21513;SDS011;10918;48.102;11.636;2022-12-08T05:31:14;17.38;;;11.63;;
21513;SDS011;10918;48.102;11.636;2022-12-08T05:33:41;18.48;;;12.00;;
21513;SDS011;10918;48.102;11.636;2022-12-08T05:36:08;16.63;;;10.90;;
21513;SDS011;10918;48.102;11.636;2022-12-08T05:38:34;17.15;;;11.15;;
21513;SDS011;10918;48.102;11.636;2022-12-08T05:41:00;14.30;;;9.98;;
21513;SDS011;10918;48.102;11.636;2022-12-08T05:43:26;16.35;;;11.20;;
21513;SDS011;10918;48.102;11.636;2022-12-08T05:45:53;13.85;;;9.23;;
21513;SDS011;10918;48.102;11.636;2022-12-08T05:48:19;14.70;;;10.45;;
21513;SDS011;10918;48.102;11.636;2022-12-08T05:50:45;15.07;;;9.85;;
21513;SDS011;10918;48.102;11.636;2022-12-08T05:53:12;15.00;;;10.25;;
21513;SDS011;10918;48.102;11.636;2022-12-08T05:55:37;14.75;;;10.20;;
21513;SDS011;10918;48.102;11.636;2022-12-08T05:58:03;18.45;;;11.02;;
21513;SDS011;10918;48.102;11.636;2022-12-08T06:00:29;16.13;;;10.75;;
21513;SDS011;10918;48.102;11.636;2022-12-08T06:02:58;15.05;;;9.85;;
21513;SDS011;10918;48.102;11.636;2022-12-08T06:05:24;15.40;;;10.77;;
21513;SDS011;10918;48.102;11.636;2022-12-08T06:07:50;15.80;;;11.63;;
21513;SDS011;10918;48.102;11.636;2022-12-08T06:10:16;15.15;;;10.32;;
21513;SDS011;10918;48.102;11.636;2022-12-08T06:12:42;16.48;;;10.75;;
21513;SDS011;10918;48.102;11.636;2022-12-08T06:15:09;15.73;;;11.07;;
21513;SDS011;10918;48.102;11.636;2022-12-08T06:17:35;14.38;;;10.30;;
21513;SDS011;10918;48.102;11.636;2022-12-08T06:20:01;17.25;;;11.48;;
21513;SDS011;10918;48.102;11.636;2022-12-08T06:22:27;16.50;;;11.10;;
21513;SDS011;10918;48.102;11.636;2022-12-08T06:24:53;15.80;;;10.50;;
21513;SDS011;10918;48.102;11.636;2022-12-08T06:27:19;15.05;;;10.85;;
21513;SDS011;10918;48.102;11.636;2022-12-08T06:29:45;14.25;;;10.20;;
21513;SDS011;10918;48.102;11.636;2022-12-08T06:32:11;16.15;;;10.38;;
21513;SDS011;10918;48.102;11.636;2022-12-08T06:34:37;15.75;;;10.43;;
21513;SDS011;10918;48.102;11.636;2022-12-08T06:37:03;17.00;;;10.88;;
21513;SDS011;10918;48.102;11.636;2022-12-08T06:39:29;17.42;;;10.98;;
21513;SDS011;10918;48.102;11.636;2022-12-08T06:41:55;17.65;;;11.55;;
21513;SDS011;10918;48.102;11.636;2022-12-08T06:44:40;17.85;;;12.00;;
21513;SDS011;10918;48.102;11.636;2022-12-08T06:47:06;21.35;;;13.00;;
21513;SDS011;10918;48.102;11.636;2022-12-08T06:49:32;17.90;;;11.20;;
21513;SDS011;10918;48.102;11.636;2022-12-08T06:51:57;15.55;;;11.02;;
21513;SDS011;10918;48.102;11.636;2022-12-08T06:54:23;17.83;;;11.00;;
21513;SDS011;10918;48.102;11.636;2022-12-08T06:56:49;18.15;;;10.98;;
21513;SDS011;10918;48.102;11.636;2022-12-08T06:59:15;17.75;;;12.05;;
21513;SDS011;10918;48.102;11.636;2022-12-08T07:01:43;17.35;;;11.45;;
21513;SDS011;10918;48.102;11.636;2022-12-08T07:04:09;17.08;;;11.10;;
21513;SDS011;10918;48.102;11.636;2022-12-08T07:06:35;20.10;;;13.07;;
21513;SDS011;10918;48.102;11.636;2022-12-08T07:09:01;18.27;;;12.82;;
21513;SDS011;10918;48.102;11.636;2022-12-08T07:11:27;23.60;;;13.35;;
21513;SDS011;10918;48.102;11.636;2022-12-08T07:13:56;19.25;;;12.90;;
21513;SDS011;10918;48.102;11.636;2022-12-08T07:16:23;18.23;;;11.90;;
21513;SDS011;10918;48.102;11.636;2022-12-08T07:18:49;17.10;;;11.65;;
21513;SDS011;10918;48.102;11.636;2022-12-08T07:21:15;18.63;;;11.73;;
21513;SDS011;10918;48.102;11.636;2022-12-08T07:23:43;18.65;;;11.55;;
21513;SDS011;10918;48.102;11.636;2022-12-08T07:26:10;20.05;;;11.65;;
21513;SDS011;10918;48.102;11.636;2022-12-08T07:28:37;17.17;;;11.55;;
21513;SDS011;10918;48.102;11.636;2022-12-08T07:31:03;17.40;;;11.75;;
21513;SDS011;10918;48.102;11.636;2022-12-08T07:33:30;16.48;;;11.07;;
21513;SDS011;10918;48.102;11.636;2022-12-08T07:35:57;19.73;;;12.20;;
21513;SDS011;10918;48.102;11.636;2022-12-08T07:38:23;18.65;;;11.98;;
21513;SDS011;10918;48.102;11.636;2022-12-08T07:40:49;18.17;;;11.35;;
21513;SDS011;10918;48.102;11.636;2022-12-08T07:43:15;17.85;;;11.20;;
21513;SDS011;10918;48.102;11.636;2022-12-08T07:45:41;17.73;;;11.25;;
21513;SDS011;10918;48.102;11.636;2022-12-08T07:48:07;16.60;;;10.98;;
21513;SDS011;10918;48.102;11.636;2022-12-08T07:50:33;16.42;;;11.30;;
21513;SDS011;10918;48.102;11.636;2022-12-08T07:52:59;18.27;;;11.48;;
21513;SDS011;10918;48.102;11.636;2022-12-08T07:55:25;20.13;;;12.18;;
21513;SDS011;10918;48.102;11.636;2022-12-08T07:57:51;17.08;;;11.20;;
21513;SDS011;10918;48.102;11.636;2022-12-08T08:00:17;19.92;;;12.10;;
21513;SDS011;10918;48.102;11.636;2022-12-08T08:02:43;18.02;;;11.30;;
21513;SDS011;10918;48.102;11.636;2022-12-08T08:05:10;15.60;;;10.70;;
21513;SDS011;10918;48.102;11.636;2022-12-08T08:07:36;16.50;;;11.23;;
21513;SDS011;10918;48.102;11.636;2022-12-08T08:10:03;17.58;;;11.63;;
21513;SDS011;10918;48.102;11.636;2022-12-08T08:12:29;16.40;;;10.52;;
21513;SDS011;10918;48.102;11.636;2022-12-08T08:14:55;18.00;;;11.32;;
21513;SDS011;10918;48.102;11.636;2022-12-08T08:17:24;15.43;;;10.10;;
21513;SDS011;10918;48.102;11.636;2022-12-08T08:19:50;16.38;;;11.00;;
21513;SDS011;10918;48.102;11.636;2022-12-08T08:22:16;15.05;;;10.35;;
21513;SDS011;10918;48.102;11.636;2022-12-08T08:24:42;15.05;;;10.63;;
21513;SDS011;10918;48.102;11.636;2022-12-08T08:27:08;14.15;;;10.65;;
21513;SDS011;10918;48.102;11.636;2022-12-08T08:29:34;14.48;;;9.70;;
21513;SDS011;10918;48.102;11.636;2022-12-08T08:32:00;16.20;;;11.07;;
21513;SDS011;10918;48.102;11.636;2022-12-08T08:34:26;14.38;;;10.27;;
21513;SDS011;10918;48.102;11.636;2022-12-08T08:36:52;14.25;;;9.60;;
21513;SDS011;10918;48.102;11.636;2022-12-08T08:39:18;15.00;;;11.05;;
21513;SDS011;10918;48.102;11.636;2022-12-08T08:41:44;16.20;;;11.13;;
21513;SDS011;10918;48.102;11.636;2022-12-08T08:44:11;15.45;;;10.35;;
21513;SDS011;10918;48.102;11.636;2022-12-08T08:46:38;13.20;;;10.15;;
21513;SDS011;10918;48.102;11.636;2022-12-08T08:49:04;16.60;;;10.73;;
21513;SDS011;10918;48.102;11.636;2022-12-08T08:51:30;12.65;;;9.88;;
21513;SDS011;10918;48.102;11.636;2022-12-08T08:53:56;14.50;;;9.25;;
21513;SDS011;10918;48.102;11.636;2022-12-08T08:56:22;14.10;;;9.70;;
21513;SDS011;10918;48.102;11.636;2022-12-08T08:58:48;14.00;;;10.18;;
21513;SDS011;10918;48.102;11.636;2022-12-08T09:01:16;14.73;;;9.30;;
21513;SDS011;10918;48.102;11.636;2022-12-08T09:03:42;12.20;;;8.93;;
21513;SDS011;10918;48.102;11.636;2022-12-08T09:06:08;11.88;;;9.25;;
21513;SDS011;10918;48.102;11.636;2022-12-08T09:08:34;13.50;;;9.05;;
21513;SDS011;10918;48.102;11.636;2022-12-08T09:11:00;13.27;;;9.80;;
21513;SDS011;10918;48.102;11.636;2022-12-08T09:13:26;13.98;;;9.25;;
21513;SDS011;10918;48.102;11.636;2022-12-08T09:15:52;11.57;;;8.57;;
21513;SDS011;10918;48.102;11.636;2022-12-08T09:18:18;12.68;;;9.45;;
21513;SDS011;10918;48.102;11.636;2022-12-08T09:20:44;12.63;;;8.93;;
21513;SDS011;10918;48.102;11.636;2022-12-08T09:23:10;10.02;;;8.52;;
21513;SDS011;10918;48.102;11.636;2022-12-08T09:25:37;13.00;;;9.00;;
21513;SDS011;10918;48.102;11.636;2022-12-08T09:28:03;12.15;;;9.00;;
21513;SDS011;10918;48.102;11.636;2022-12-08T09:30:29;11.70;;;8.93;;
21513;SDS011;10918;48.102;11.636;2022-12-08T09:32:55;13.05;;;9.30;;
21513;SDS011;10918;48.102;11.636;2022-12-08T09:35:21;10.07;;;8.30;;
21513;SDS011;10918;48.102;11.636;2022-12-08T09:37:47;11.32;;;8.55;;
21513;SDS011;10918;48.102;11.636;2022-12-08T09:40:14;10.98;;;8.70;;
21513;SDS011;10918;48.102;11.636;2022-12-08T09:47:41;10.70;;;8.43;;
21513;SDS011;10918;48.102;11.636;2022-12-08T09:50:17;11.35;;;9.05;;
21513;SDS011;10918;48.102;11.636;2022-12-08T09:52:46;11.48;;;9.63;;
21513;SDS011;10918;48.102;11.636;2022-12-08T09:55:21;11.98;;;9.45;;
21513;SDS011;10918;48.102;11.636;2022-12-08T09:57:49;12.85;;;10.15;;
21513;SDS011;10918;48.102;11.636;2022-12-08T10:00:16;12.82;;;9.88;;
21513;SDS011;10918;48.102;11.636;2022-12-08T10:02:42;12.50;;;10.27;;
21513;SDS011;10918;48.102;11.636;2022-12-08T10:05:11;12.55;;;10.07;;
21513;SDS011;10918;48.102;11.636;2022-12-08T10:07:45;13.65;;;10.30;;
21513;SDS011;10918;48.102;11.636;2022-12-08T10:17:32;12.48;;;9.32;;
21513;SDS011;10918;48.102;11.636;2022-12-08T10:19:59;11.38;;;9.65;;
21513;SDS011;10918;48.102;11.636;2022-12-08T10:22:30;16.42;;;10.25;;
21513;SDS011;10918;48.102;11.636;2022-12-08T10:24:59;14.00;;;10.85;;
21513;SDS011;10918;48.102;11.636;2022-12-08T10:27:25;12.93;;;9.88;;
21513;SDS011;10918;48.102;11.636;2022-12-08T10:29:51;12.05;;;9.65;;
21513;SDS011;10918;48.102;11.636;2022-12-08T10:32:23;11.35;;;9.00;;
21513;SDS011;10918;48.102;11.636;2022-12-08T10:37:27;12.10;;;9.90;;
21513;SDS011;10918;48.102;11.636;2022-12-08T10:40:00;10.95;;;9.77;;
21513;SDS011;10918;48.102;11.636;2022-12-08T10:42:31;12.00;;;9.38;;
21513;SDS011;10918;48.102;11.636;2022-12-08T10:47:36;11.32;;;9.45;;
21513;SDS011;10918;48.102;11.636;2022-12-08T10:52:38;16.42;;;12.32;;
21513;SDS011;10918;48.102;11.636;2022-12-08T10:55:18;14.07;;;10.57;;
21513;SDS011;10918;48.102;11.636;2022-12-08T10:57:44;17.20;;;11.63;;
21513;SDS011;10918;48.102;11.636;2022-12-08T11:00:14;14.23;;;10.75;;
21513;SDS011;10918;48.102;11.636;2022-12-08T11:02:53;14.70;;;10.60;;
21513;SDS011;10918;48.102;11.636;2022-12-08T11:05:20;14.63;;;10.85;;
21513;SDS011;10918;48.102;11.636;2022-12-08T11:07:50;16.15;;;11.25;;
21513;SDS011;10918;48.102;11.636;2022-12-08T11:10:17;18.83;;;11.32;;
21513;SDS011;10918;48.102;11.636;2022-12-08T11:12:43;15.00;;;10.35;;
21513;SDS011;10918;48.102;11.636;2022-12-08T11:15:13;18.58;;;11.50;;
21513;SDS011;10918;48.102;11.636;2022-12-08T11:17:40;15.52;;;10.43;;
21513;SDS011;10918;48.102;11.636;2022-12-08T11:22:36;14.07;;;10.10;;
21513;SDS011;10918;48.102;11.636;2022-12-08T11:27:36;16.45;;;10.50;;
21513;SDS011;10918;48.102;11.636;2022-12-08T11:30:05;17.17;;;11.25;;
21513;SDS011;10918;48.102;11.636;2022-12-08T11:32:31;15.40;;;10.98;;
21513;SDS011;10918;48.102;11.636;2022-12-08T11:34:59;16.83;;;11.18;;
21513;SDS011;10918;48.102;11.636;2022-12-08T11:39:56;14.52;;;10.20;;
21513;SDS011;10918;48.102;11.636;2022-12-08T11:42:23;15.48;;;10.43;;
21513;SDS011;10918;48.102;11.636;2022-12-08T11:45:02;14.32;;;10.25;;
21513;SDS011;10918;48.102;11.636;2022-12-08T11:47:30;14.00;;;9.82;;
21513;SDS011;10918;48.102;11.636;2022-12-08T11:50:03;18.05;;;10.95;;
21513;SDS011;10918;48.102;11.636;2022-12-08T11:52:38;18.98;;;11.77;;
21513;SDS011;10918;48.102;11.636;2022-12-08T11:57:56;18.20;;;11.82;;
21513;SDS011;10918;48.102;11.636;2022-12-08T12:00:24;19.15;;;11.93;;
21513;SDS011;10918;48.102;11.636;2022-12-08T12:02:53;16.65;;;11.57;;
21513;SDS011;10918;48.102;11.636;2022-12-08T12:10:38;14.75;;;10.60;;
21513;SDS011;10918;48.102;11.636;2022-12-08T12:13:22;17.15;;;11.73;;
21513;SDS011;10918;48.102;11.636;2022-12-08T12:18:39;15.85;;;10.45;;
21513;SDS011;10918;48.102;11.636;2022-12-08T12:21:17;16.42;;;11.70;;
21513;SDS011;10918;48.102;11.636;2022-12-08T12:23:45;17.73;;;12.07;;
21513;SDS011;10918;48.102;11.636;2022-12-08T12:26:16;20.48;;;11.30;;
21513;SDS011;10918;48.102;11.636;2022-12-08T12:28:46;20.35;;;11.77;;
21513;SDS011;10918;48.102;11.636;2022-12-08T12:31:17;16.00;;;10.15;;
21513;SDS011;10918;48.102;11.636;2022-12-08T12:33:44;20.05;;;11.02;;
21513;SDS011;10918;48.102;11.636;2022-12-08T12:36:11;15.70;;;10.95;;
21513;SDS011;10918;48.102;11.636;2022-12-08T12:38:51;16.73;;;11.90;;
21513;SDS011;10918;48.102;11.636;2022-12-08T12:41:35;16.65;;;10.80;;
21513;SDS011;10918;48.102;11.636;2022-12-08T12:44:07;17.40;;;10.98;;
21513;SDS011;10918;48.102;11.636;2022-12-08T12:49:34;17.88;;;11.90;;
21513;SDS011;10918;48.102;11.636;2022-12-08T12:51:54;18.10;;;12.05;;
21513;SDS011;10918;48.102;11.636;2022-12-08T12:54:21;17.27;;;11.93;;
21513;SDS011;10918;48.102;11.636;2022-12-08T12:56:48;20.70;;;12.32;;
21513;SDS011;10918;48.102;11.636;2022-12-08T12:59:26;21.90;;;12.23;;
21513;SDS011;10918;48.102;11.636;2022-12-08T13:01:55;17.55;;;11.50;;
21513;SDS011;10918;48.102;11.636;2022-12-08T13:04:29;17.15;;;12.00;;
21513;SDS011;10918;48.102;11.636;2022-12-08T13:06:56;15.85;;;11.25;;
21513;SDS011;10918;48.102;11.636;2022-12-08T13:09:28;18.58;;;11.95;;
21513;SDS011;10918;48.102;11.636;2022-12-08T13:11:56;18.42;;;10.98;;
21513;SDS011;10918;48.102;11.636;2022-12-08T13:14:26;20.95;;;12.38;;
21513;SDS011;10918;48.102;11.636;2022-12-08T13:16:53;17.23;;;11.88;;
21513;SDS011;10918;48.102;11.636;2022-12-08T13:19:20;15.32;;;10.75;;
21513;SDS011;10918;48.102;11.636;2022-12-08T13:21:47;17.95;;;11.93;;
21513;SDS011;10918;48.102;11.636;2022-12-08T13:24:14;16.77;;;11.73;;
21513;SDS011;10918;48.102;11.636;2022-12-08T13:26:45;15.05;;;10.40;;
21513;SDS011;10918;48.102;11.636;2022-12-08T13:29:13;15.20;;;11.13;;
21513;SDS011;10918;48.102;11.636;2022-12-08T13:31:40;16.40;;;11.02;;
21513;SDS011;10918;48.102;11.636;2022-12-08T13:34:11;21.00;;;12.00;;
21513;SDS011;10918;48.102;11.636;2022-12-08T13:36:39;20.83;;;12.18;;
21513;SDS011;10918;48.102;11.636;2022-12-08T13:39:06;17.38;;;11.85;;
21513;SDS011;10918;48.102;11.636;2022-12-08T13:41:42;16.33;;;12.15;;
21513;SDS011;10918;48.102;11.636;2022-12-08T13:44:20;18.33;;;10.80;;
21513;SDS011;10918;48.102;11.636;2022-12-08T13:46:51;17.23;;;11.43;;
21513;SDS011;10918;48.102;11.636;2022-12-08T13:49:17;15.73;;;11.43;;
21513;SDS011;10918;48.102;11.636;2022-12-08T13:51:47;18.63;;;12.77;;
21513;SDS011;10918;48.102;11.636;2022-12-08T13:54:17;19.52;;;12.35;;
21513;SDS011;10918;48.102;11.636;2022-12-08T13:56:44;18.55;;;12.40;;
21513;SDS011;10918;48.102;11.636;2022-12-08T14:01:48;15.50;;;11.55;;
21513;SDS011;10918;48.102;11.636;2022-12-08T14:04:15;17.95;;;11.93;;
21513;SDS011;10918;48.102;11.636;2022-12-08T14:06:43;17.27;;;11.85;;
21513;SDS011;10918;48.102;11.636;2022-12-08T14:09:11;19.25;;;12.30;;
21513;SDS011;10918;48.102;11.636;2022-12-08T14:11:38;17.25;;;11.70;;
21513;SDS011;10918;48.102;11.636;2022-12-08T14:14:12;16.00;;;11.48;;
21513;SDS011;10918;48.102;11.636;2022-12-08T14:16:40;18.17;;;11.25;;
21513;SDS011;10918;48.102;11.636;2022-12-08T14:19:41;18.00;;;11.68;;
21513;SDS011;10918;48.102;11.636;2022-12-08T14:22:00;16.73;;;11.65;;
21513;SDS011;10918;48.102;11.636;2022-12-08T14:24:28;16.42;;;11.82;;
21513;SDS011;10918;48.102;11.636;2022-12-08T14:26:58;18.30;;;11.52;;
21513;SDS011;10918;48.102;11.636;2022-12-08T14:32:26;18.77;;;12.70;;
21513;SDS011;10918;48.102;11.636;2022-12-08T14:34:53;22.38;;;12.07;;
21513;SDS011;10918;48.102;11.636;2022-12-08T14:37:19;20.38;;;12.48;;
21513;SDS011;10918;48.102;11.636;2022-12-08T14:39:46;20.05;;;12.85;;
21513;SDS011;10918;48.102;11.636;2022-12-08T14:42:30;27.10;;;17.40;;
21513;SDS011;10918;48.102;11.636;2022-12-08T14:45:05;15.10;;;11.32;;
21513;SDS011;10918;48.102;11.636;2022-12-08T14:47:34;16.23;;;11.95;;
21513;SDS011;10918;48.102;11.636;2022-12-08T14:50:00;18.80;;;12.35;;
21513;SDS011;10918;48.102;11.636;2022-12-08T14:52:26;19.20;;;12.13;;
21513;SDS011;10918;48.102;11.636;2022-12-08T14:54:52;20.65;;;12.23;;
21513;SDS011;10918;48.102;11.636;2022-12-08T14:57:19;17.88;;;11.77;;
21513;SDS011;10918;48.102;11.636;2022-12-08T14:59:45;17.10;;;11.75;;
21513;SDS011;10918;48.102;11.636;2022-12-08T15:05:01;21.55;;;12.90;;
21513;SDS011;10918;48.102;11.636;2022-12-08T15:07:29;17.63;;;12.27;;
21513;SDS011;10918;48.102;11.636;2022-12-08T15:12:34;17.85;;;11.63;;
21513;SDS011;10918;48.102;11.636;2022-12-08T15:15:10;17.65;;;11.82;;
21513;SDS011;10918;48.102;11.636;2022-12-08T15:20:05;19.85;;;12.57;;
21513;SDS011;10918;48.102;11.636;2022-12-08T15:22:32;20.80;;;12.90;;
21513;SDS011;10918;48.102;11.636;2022-12-08T15:24:58;21.90;;;12.77;;
21513;SDS011;10918;48.102;11.636;2022-12-08T15:27:24;18.42;;;12.15;;
21513;SDS011;10918;48.102;11.636;2022-12-08T15:29:50;16.80;;;11.25;;
21513;SDS011;10918;48.102;11.636;2022-12-08T15:32:18;14.82;;;10.38;;
21513;SDS011;10918;48.102;11.636;2022-12-08T15:34:44;17.92;;;11.38;;
21513;SDS011;10918;48.102;11.636;2022-12-08T15:37:19;17.67;;;11.65;;